createdAt,value
2023-05-21T00:00:21.623Z,995.62
2023-05-21T00:01:21.610Z,995.60
2023-05-21T00:02:21.621Z,995.61
2023-05-21T00:03:21.692Z,995.62
2023-05-21T00:04:21.563Z,995.56
2023-05-21T00:05:21.573Z,995.61
2023-05-21T00:06:21.576Z,995.58
2023-05-21T00:07:21.551Z,995.57
2023-05-21T00:08:21.539Z,995.58
2023-05-21T00:09:21.533Z,995.57
2023-05-21T00:10:21.517Z,995.54
2023-05-21T00:11:21.523Z,995.55
2023-05-21T00:12:21.484Z,995.52
2023-05-21T00:13:21.476Z,995.52
2023-05-21T00:14:21.490Z,995.52
2023-05-21T00:15:21.464Z,995.54
2023-05-21T00:16:21.482Z,995.53
2023-05-21T00:17:21.460Z,995.49
2023-05-21T00:18:21.426Z,995.48
2023-05-21T00:19:21.534Z,995.47
2023-05-21T00:20:21.416Z,995.55
2023-05-21T00:21:21.397Z,995.50
2023-05-21T00:22:21.376Z,995.49
2023-05-21T00:23:21.412Z,995.49
2023-05-21T00:24:21.352Z,995.47
2023-05-21T00:25:21.353Z,995.42
2023-05-21T00:26:21.331Z,995.45
2023-05-21T00:27:21.359Z,995.42
2023-05-21T00:28:21.316Z,995.36
2023-05-21T00:29:21.322Z,995.28
2023-05-21T00:30:21.294Z,995.32
2023-05-21T00:31:21.354Z,995.28
2023-05-21T00:32:21.289Z,995.30
2023-05-21T00:33:21.263Z,995.27
2023-05-21T00:34:21.241Z,995.28
2023-05-21T00:35:21.236Z,995.26
2023-05-21T00:36:21.217Z,995.27
2023-05-21T00:37:21.222Z,995.23
2023-05-21T00:38:21.205Z,995.25
2023-05-21T00:39:21.192Z,995.24
2023-05-21T00:40:21.179Z,995.23
2023-05-21T00:41:21.180Z,995.22
2023-05-21T00:42:21.156Z,995.22
2023-05-21T00:43:21.181Z,995.22
2023-05-21T00:44:21.136Z,995.24
2023-05-21T00:45:21.134Z,995.19
2023-05-21T00:46:21.182Z,995.17
2023-05-21T00:47:21.206Z,995.16
2023-05-21T00:48:21.091Z,995.17
2023-05-21T00:49:21.089Z,995.15
2023-05-21T00:50:21.077Z,995.11
2023-05-21T00:51:21.072Z,995.13
2023-05-21T00:52:21.058Z,995.15
2023-05-21T00:53:21.053Z,995.17
2023-05-21T00:54:21.026Z,995.10
2023-05-21T00:55:21.025Z,995.11
2023-05-21T00:56:21.013Z,995.11
2023-05-21T00:57:21.005Z,995.14
2023-05-21T00:58:20.988Z,995.12
2023-05-21T00:59:21.007Z,995.11
2023-05-21T01:00:20.969Z,995.13
2023-05-21T01:01:21.028Z,995.11
2023-05-21T01:02:20.995Z,995.14
2023-05-21T01:03:21.262Z,995.16
2023-05-21T01:04:20.939Z,995.15
2023-05-21T01:05:20.922Z,995.15
2023-05-21T01:06:20.896Z,995.13
2023-05-21T01:07:20.906Z,995.15
2023-05-21T01:08:20.878Z,995.14
2023-05-21T01:09:20.882Z,995.13
2023-05-21T01:10:20.857Z,995.12
2023-05-21T01:11:20.854Z,995.11
2023-05-21T01:12:20.831Z,995.10
2023-05-21T01:13:20.832Z,995.08
2023-05-21T01:14:20.822Z,995.10
2023-05-21T01:15:20.830Z,995.10
2023-05-21T01:16:20.817Z,995.06
2023-05-21T01:17:20.851Z,995.08
2023-05-21T01:18:20.793Z,995.10
2023-05-21T01:19:20.834Z,995.05
2023-05-21T01:20:20.751Z,995.07
2023-05-21T01:21:20.768Z,994.99
2023-05-21T01:22:20.734Z,995.05
2023-05-21T01:23:20.743Z,995.02
2023-05-21T01:24:20.710Z,995.02
2023-05-21T01:25:20.710Z,995.08
2023-05-21T01:26:20.696Z,995.11
2023-05-21T01:27:20.680Z,995.10
2023-05-21T01:28:20.664Z,995.09
2023-05-21T01:29:20.678Z,995.00
2023-05-21T01:30:20.643Z,995.04
2023-05-21T01:31:20.672Z,995.01
2023-05-21T01:32:20.611Z,995.01
2023-05-21T01:33:20.690Z,995.02
2023-05-21T01:34:20.611Z,994.98
2023-05-21T01:35:20.596Z,995.04
2023-05-21T01:36:20.576Z,995.03
2023-05-21T01:37:20.576Z,995.03
2023-05-21T01:38:20.571Z,995.00
2023-05-21T01:39:20.547Z,994.92
2023-05-21T01:40:20.534Z,994.93
2023-05-21T01:41:20.537Z,994.89
2023-05-21T01:42:20.512Z,994.92
2023-05-21T01:43:20.517Z,994.88
2023-05-21T01:44:20.488Z,994.85
2023-05-21T01:45:20.491Z,994.89
2023-05-21T01:46:20.492Z,994.87
2023-05-21T01:47:20.498Z,994.91
2023-05-21T01:48:20.455Z,994.88
2023-05-21T01:49:20.445Z,994.84
2023-05-21T01:50:20.447Z,994.81
2023-05-21T01:51:20.430Z,994.82
2023-05-21T01:52:20.405Z,994.85
2023-05-21T01:53:20.407Z,994.90
2023-05-21T01:54:20.379Z,994.92
2023-05-21T01:55:20.381Z,994.91
2023-05-21T01:56:20.362Z,994.89
2023-05-21T01:57:20.365Z,994.91
2023-05-21T01:58:20.342Z,994.90
2023-05-21T01:59:20.340Z,994.85
2023-05-21T02:00:20.330Z,994.85
2023-05-21T02:01:20.398Z,994.88
2023-05-21T02:02:20.360Z,994.87
2023-05-21T02:03:20.469Z,994.88
2023-05-21T02:04:20.273Z,994.90
2023-05-21T02:05:20.296Z,994.89
2023-05-21T02:06:20.257Z,994.86
2023-05-21T02:07:20.255Z,994.89
2023-05-21T02:08:20.237Z,994.87
2023-05-21T02:09:20.232Z,994.83
2023-05-21T02:10:20.226Z,994.81
2023-05-21T02:11:20.205Z,994.84
2023-05-21T02:12:20.186Z,994.82
2023-05-21T02:13:20.185Z,994.74
2023-05-21T02:14:20.170Z,994.76
2023-05-21T02:15:20.168Z,994.75
2023-05-21T02:16:20.202Z,994.76
2023-05-21T02:17:20.163Z,994.73
2023-05-21T02:18:20.123Z,994.80
2023-05-21T02:19:20.207Z,994.75
2023-05-21T02:20:20.112Z,994.76
2023-05-21T02:21:20.115Z,994.75
2023-05-21T02:22:20.082Z,994.74
2023-05-21T02:23:20.149Z,994.69
2023-05-21T02:24:20.074Z,994.77
2023-05-21T02:25:20.073Z,994.79
2023-05-21T02:26:20.044Z,994.80
2023-05-21T02:27:20.037Z,994.81
2023-05-21T02:28:20.029Z,994.82
2023-05-21T02:29:20.027Z,994.85
2023-05-21T02:30:19.995Z,994.83
2023-05-21T02:31:20.018Z,994.82
2023-05-21T02:32:19.978Z,994.79
2023-05-21T02:33:19.974Z,994.81
2023-05-21T02:34:20.019Z,994.82
2023-05-21T02:35:19.976Z,994.79
2023-05-21T02:36:19.937Z,994.83
2023-05-21T02:37:19.937Z,994.84
2023-05-21T02:38:19.927Z,994.81
2023-05-21T02:39:19.919Z,994.81
2023-05-21T02:40:19.896Z,994.77
2023-05-21T02:41:19.909Z,994.83
2023-05-21T02:42:19.885Z,994.80
2023-05-21T02:43:19.881Z,994.87
2023-05-21T02:44:19.858Z,994.89
2023-05-21T02:45:19.846Z,994.89
2023-05-21T02:46:19.840Z,994.87
2023-05-21T02:47:19.840Z,994.83
2023-05-21T02:48:19.807Z,994.82
2023-05-21T02:49:19.805Z,994.78
2023-05-21T02:50:19.786Z,994.80
2023-05-21T02:51:19.810Z,994.79
2023-05-21T02:52:19.764Z,994.79
2023-05-21T02:53:19.765Z,994.77
2023-05-21T02:54:19.749Z,994.76
2023-05-21T02:55:19.746Z,994.75
2023-05-21T02:56:19.725Z,994.79
2023-05-21T02:57:19.738Z,994.79
2023-05-21T02:58:19.746Z,994.75
2023-05-21T02:59:19.696Z,994.80
2023-05-21T03:00:19.687Z,994.75
2023-05-21T03:01:19.719Z,994.75
2023-05-21T03:02:19.715Z,994.73
2023-05-21T03:03:19.749Z,994.68
2023-05-21T03:04:19.625Z,994.68
2023-05-21T03:05:19.627Z,994.67
2023-05-21T03:06:19.620Z,994.70
2023-05-21T03:07:19.638Z,994.75
2023-05-21T03:08:19.586Z,994.75
2023-05-21T03:09:19.584Z,994.72
2023-05-21T03:10:19.585Z,994.76
2023-05-21T03:11:19.577Z,994.71
2023-05-21T03:12:19.563Z,994.71
2023-05-21T03:13:19.529Z,994.70
2023-05-21T03:14:19.518Z,994.67
2023-05-21T03:15:19.465Z,994.70
2023-05-21T03:16:19.511Z,994.64
2023-05-21T03:17:19.440Z,994.67
2023-05-21T03:18:19.432Z,994.66
2023-05-21T03:19:19.430Z,994.68
2023-05-21T03:20:19.415Z,994.65
2023-05-21T03:21:19.398Z,994.65
2023-05-21T03:22:19.394Z,994.68
2023-05-21T03:23:19.405Z,994.63
2023-05-21T03:24:19.372Z,994.63
2023-05-21T03:25:19.360Z,994.62
2023-05-21T03:26:19.352Z,994.59
2023-05-21T03:27:19.335Z,994.64
2023-05-21T03:28:19.335Z,994.61
2023-05-21T03:29:19.314Z,994.63
2023-05-21T03:30:19.309Z,994.62
2023-05-21T03:31:19.293Z,994.59
2023-05-21T03:32:19.431Z,994.58
2023-05-21T03:33:19.273Z,994.61
2023-05-21T03:34:19.268Z,994.61
2023-05-21T03:35:19.254Z,994.61
2023-05-21T03:36:19.242Z,994.61
2023-05-21T03:37:19.231Z,994.60
2023-05-21T03:38:19.231Z,994.64
2023-05-21T03:39:19.229Z,994.65
2023-05-21T03:40:19.215Z,994.65
2023-05-21T03:41:19.180Z,994.67
2023-05-21T03:42:19.186Z,994.63
2023-05-21T03:43:19.164Z,994.61
2023-05-21T03:44:19.165Z,994.67
2023-05-21T03:45:19.147Z,994.66
2023-05-21T03:46:19.202Z,994.66
2023-05-21T03:47:19.176Z,994.65
2023-05-21T03:48:19.117Z,994.65
2023-05-21T03:49:19.097Z,994.63
2023-05-21T03:50:19.090Z,994.61
2023-05-21T03:51:19.073Z,994.58
2023-05-21T03:52:19.080Z,994.57
2023-05-21T03:53:19.054Z,994.57
2023-05-21T03:54:19.071Z,994.59
2023-05-21T03:55:19.059Z,994.59
2023-05-21T03:56:19.036Z,994.60
2023-05-21T03:57:19.009Z,994.61
2023-05-21T03:58:19.018Z,994.59
2023-05-21T03:59:19.009Z,994.60
2023-05-21T04:00:18.983Z,994.57
2023-05-21T04:01:18.964Z,994.60
2023-05-21T04:02:19.025Z,994.60
2023-05-21T04:03:19.082Z,994.61
2023-05-21T04:04:18.975Z,994.68
2023-05-21T04:05:18.930Z,994.63
2023-05-21T04:06:18.925Z,994.65
2023-05-21T04:07:18.903Z,994.62
2023-05-21T04:08:18.908Z,994.59
2023-05-21T04:09:18.877Z,994.63
2023-05-21T04:10:18.885Z,994.60
2023-05-21T04:11:18.879Z,994.62
2023-05-21T04:12:18.858Z,994.63
2023-05-21T04:13:18.842Z,994.62
2023-05-21T04:14:18.829Z,994.61
2023-05-21T04:15:18.821Z,994.62
2023-05-21T04:16:18.867Z,994.63
2023-05-21T04:17:18.807Z,994.61
2023-05-21T04:18:18.805Z,994.61
2023-05-21T04:20:18.769Z,994.68
2023-05-21T04:21:18.752Z,994.61
2023-05-21T04:22:18.744Z,994.61
2023-05-21T04:23:18.734Z,994.60
2023-05-21T04:24:18.732Z,994.59
2023-05-21T04:25:18.724Z,994.62
2023-05-21T04:26:18.710Z,994.62
2023-05-21T04:27:18.709Z,994.64
2023-05-21T04:28:18.694Z,994.62
2023-05-21T04:29:18.667Z,994.62
2023-05-21T04:30:18.689Z,994.63
2023-05-21T04:31:18.743Z,994.59
2023-05-21T04:32:18.662Z,994.58
2023-05-21T04:33:18.691Z,994.64
2023-05-21T04:34:18.631Z,994.65
2023-05-21T04:35:18.606Z,994.69
2023-05-21T04:36:18.594Z,994.68
2023-05-21T04:37:18.573Z,994.71
2023-05-21T04:38:18.593Z,994.68
2023-05-21T04:39:18.584Z,994.70
2023-05-21T04:40:18.614Z,994.73
2023-05-21T04:41:18.547Z,994.76
2023-05-21T04:42:18.545Z,994.74
2023-05-21T04:43:18.544Z,994.67
2023-05-21T04:44:18.516Z,994.69
2023-05-21T04:45:18.519Z,994.71
2023-05-21T04:46:18.511Z,994.69
2023-05-21T04:47:18.483Z,994.67
2023-05-21T04:48:18.477Z,994.67
2023-05-21T04:49:18.453Z,994.67
2023-05-21T04:50:18.443Z,994.70
2023-05-21T04:51:18.433Z,994.69
2023-05-21T04:52:18.435Z,994.68
2023-05-21T04:53:18.414Z,994.66
2023-05-21T04:54:18.415Z,994.68
2023-05-21T04:55:18.399Z,994.68
2023-05-21T04:56:18.380Z,994.70
2023-05-21T04:57:18.422Z,994.66
2023-05-21T04:58:18.418Z,994.71
2023-05-21T04:59:18.367Z,994.70
2023-05-21T05:00:18.348Z,994.73
2023-05-21T05:01:18.388Z,994.72
2023-05-21T05:02:18.318Z,994.71
2023-05-21T05:03:18.592Z,994.72
2023-05-21T05:04:18.308Z,994.75
2023-05-21T05:05:18.290Z,994.75
2023-05-21T05:06:18.281Z,994.72
2023-05-21T05:07:18.276Z,994.73
2023-05-21T05:08:18.255Z,994.71
2023-05-21T05:09:18.242Z,994.73
2023-05-21T05:10:18.238Z,994.74
2023-05-21T05:11:18.212Z,994.75
2023-05-21T05:12:18.216Z,994.68
2023-05-21T05:13:18.194Z,994.68
2023-05-21T05:14:18.218Z,994.71
2023-05-21T05:15:18.201Z,994.70
2023-05-21T05:16:18.219Z,994.70
2023-05-21T05:17:18.153Z,994.70
2023-05-21T05:18:18.151Z,994.72
2023-05-21T05:19:18.219Z,994.68
2023-05-21T05:20:18.145Z,994.68
2023-05-21T05:21:18.112Z,994.70
2023-05-21T05:22:18.107Z,994.70
2023-05-21T05:23:18.097Z,994.71
2023-05-21T05:24:18.086Z,994.74
2023-05-21T05:25:18.069Z,994.72
2023-05-21T05:26:18.060Z,994.74
2023-05-21T05:27:18.041Z,994.68
2023-05-21T05:28:18.043Z,994.65
2023-05-21T05:29:18.053Z,994.65
2023-05-21T05:30:18.016Z,994.67
2023-05-21T05:31:18.103Z,994.66
2023-05-21T05:32:18.002Z,994.64
2023-05-21T05:33:17.982Z,994.67
2023-05-21T05:34:17.982Z,994.62
2023-05-21T05:35:17.970Z,994.62
2023-05-21T05:36:17.957Z,994.60
2023-05-21T05:37:17.962Z,994.65
2023-05-21T05:38:17.932Z,994.63
2023-05-21T05:39:17.915Z,994.66
2023-05-21T05:40:17.915Z,994.65
2023-05-21T05:41:17.908Z,994.63
2023-05-21T05:42:17.893Z,994.62
2023-05-21T05:43:17.871Z,994.63
2023-05-21T05:44:17.869Z,994.64
2023-05-21T05:45:17.854Z,994.65
2023-05-21T05:46:17.866Z,994.65
2023-05-21T05:47:17.850Z,994.63
2023-05-21T05:48:17.830Z,994.68
2023-05-21T05:49:17.800Z,994.72
2023-05-21T05:50:17.801Z,994.76
2023-05-21T05:51:17.778Z,994.70
2023-05-21T05:52:17.795Z,994.74
2023-05-21T05:53:17.758Z,994.75
2023-05-21T05:54:17.761Z,994.75
2023-05-21T05:55:17.741Z,994.71
2023-05-21T05:56:17.740Z,994.74
2023-05-21T05:57:17.727Z,994.71
2023-05-21T05:58:17.711Z,994.69
2023-05-21T05:59:17.710Z,994.71
2023-05-21T06:00:17.685Z,994.75
2023-05-21T06:01:17.758Z,994.74
2023-05-21T06:02:17.793Z,994.75
2023-05-21T06:03:17.874Z,994.77
2023-05-21T06:04:17.652Z,994.78
2023-05-21T06:05:17.786Z,994.78
2023-05-21T06:06:17.829Z,994.79
2023-05-21T06:07:17.659Z,994.76
2023-05-21T06:08:17.698Z,994.79
2023-05-21T06:09:17.590Z,994.79
2023-05-21T06:10:17.692Z,994.82
2023-05-21T06:11:17.560Z,994.79
2023-05-21T06:12:17.561Z,994.82
2023-05-21T06:13:17.538Z,994.83
2023-05-21T06:14:17.537Z,994.84
2023-05-21T06:15:17.521Z,994.86
2023-05-21T06:16:17.594Z,994.86
2023-05-21T06:17:17.505Z,994.80
2023-05-21T06:18:17.493Z,994.82
2023-05-21T06:19:17.549Z,994.78
2023-05-21T06:20:17.477Z,994.81
2023-05-21T06:21:17.456Z,994.80
2023-05-21T06:22:17.454Z,994.80
2023-05-21T06:23:17.433Z,994.82
2023-05-21T06:24:17.454Z,994.73
2023-05-21T06:25:17.419Z,994.75
2023-05-21T06:26:17.409Z,994.76
2023-05-21T06:27:17.412Z,994.80
2023-05-21T06:28:17.386Z,994.78
2023-05-21T06:29:17.387Z,994.79
2023-05-21T06:30:17.364Z,994.78
2023-05-21T06:31:17.357Z,994.82
2023-05-21T06:32:17.398Z,994.85
2023-05-21T06:33:17.414Z,994.82
2023-05-21T06:34:17.327Z,994.81
2023-05-21T06:35:17.333Z,994.79
2023-05-21T06:36:17.305Z,994.80
2023-05-21T06:37:17.289Z,994.76
2023-05-21T06:38:17.286Z,994.77
2023-05-21T06:39:17.254Z,994.79
2023-05-21T06:40:17.255Z,994.82
2023-05-21T06:41:17.238Z,994.82
2023-05-21T06:42:17.237Z,994.84
2023-05-21T06:43:17.227Z,994.87
2023-05-21T06:44:17.213Z,994.84
2023-05-21T06:45:17.192Z,994.83
2023-05-21T06:46:17.219Z,994.79
2023-05-21T06:47:17.172Z,994.85
2023-05-21T06:48:17.187Z,994.84
2023-05-21T06:49:17.161Z,994.87
2023-05-21T06:50:17.177Z,994.86
2023-05-21T06:51:17.156Z,994.85
2023-05-21T06:52:17.126Z,994.85
2023-05-21T06:53:17.110Z,994.85
2023-05-21T06:54:17.113Z,994.87
2023-05-21T06:55:17.090Z,994.82
2023-05-21T06:56:17.111Z,994.82
2023-05-21T06:57:17.068Z,994.89
2023-05-21T06:58:17.074Z,994.83
2023-05-21T06:59:17.055Z,994.80
2023-05-21T07:00:17.041Z,994.80
2023-05-21T07:01:17.173Z,994.83
2023-05-21T07:02:17.089Z,994.78
2023-05-21T07:03:17.105Z,994.81
2023-05-21T07:04:17.002Z,994.82
2023-05-21T07:05:16.991Z,994.83
2023-05-21T07:06:16.995Z,994.80
2023-05-21T07:07:16.977Z,994.75
2023-05-21T07:08:16.957Z,994.77
2023-05-21T07:09:16.942Z,994.77
2023-05-21T07:10:16.933Z,994.74
2023-05-21T07:11:16.911Z,994.74
2023-05-21T07:12:16.910Z,994.78
2023-05-21T07:13:16.893Z,994.81
2023-05-21T07:14:16.887Z,994.82
2023-05-21T07:15:16.875Z,994.83
2023-05-21T07:16:16.924Z,994.81
2023-05-21T07:17:16.844Z,994.79
2023-05-21T07:18:16.876Z,994.79
2023-05-21T07:19:16.895Z,994.83
2023-05-21T07:20:16.836Z,994.81
2023-05-21T07:21:16.817Z,994.80
2023-05-21T07:22:16.800Z,994.84
2023-05-21T07:23:16.810Z,994.84
2023-05-21T07:24:16.792Z,994.85
2023-05-21T07:25:16.756Z,994.82
2023-05-21T07:26:16.765Z,994.76
2023-05-21T07:27:25.473Z,994.82
2023-05-21T07:28:17.773Z,994.79
2023-05-21T07:29:16.730Z,994.82
2023-05-21T07:30:16.705Z,994.81
2023-05-21T07:31:16.733Z,994.83
2023-05-21T07:32:16.686Z,994.83
2023-05-21T07:33:16.697Z,994.81
2023-05-21T07:34:16.668Z,994.78
2023-05-21T07:35:16.662Z,994.84
2023-05-21T07:36:16.642Z,994.77
2023-05-21T07:37:16.647Z,994.80
2023-05-21T07:38:16.618Z,994.76
2023-05-21T07:39:16.747Z,994.76
2023-05-21T07:40:16.639Z,994.78
2023-05-21T07:41:18.559Z,994.73
2023-05-21T07:42:16.585Z,994.77
2023-05-21T07:43:16.586Z,994.78
2023-05-21T07:44:16.562Z,994.73
2023-05-21T07:45:16.585Z,994.73
2023-05-21T07:46:16.622Z,994.73
2023-05-21T07:47:16.537Z,994.70
2023-05-21T07:48:16.517Z,994.69
2023-05-21T07:49:16.690Z,994.71
2023-05-21T07:50:16.497Z,994.69
2023-05-21T07:51:16.492Z,994.73
2023-05-21T07:52:16.487Z,994.69
2023-05-21T07:53:16.474Z,994.66
2023-05-21T07:54:16.465Z,994.65
2023-05-21T07:55:16.481Z,994.70
2023-05-21T07:56:16.450Z,994.72
2023-05-21T07:57:16.432Z,994.71
2023-05-21T07:58:16.417Z,994.68
2023-05-21T07:59:16.413Z,994.66
2023-05-21T08:00:16.403Z,994.69
2023-05-21T08:01:16.405Z,994.72
2023-05-21T08:02:16.380Z,994.73
2023-05-21T08:03:16.624Z,994.71
2023-05-21T08:04:16.467Z,994.66
2023-05-21T08:05:16.518Z,994.64
2023-05-21T08:06:16.337Z,994.66
2023-05-21T08:07:16.327Z,994.72
2023-05-21T08:08:16.316Z,994.67
2023-05-21T08:09:16.309Z,994.66
2023-05-21T08:10:19.090Z,994.66
2023-05-21T08:11:16.340Z,994.63
2023-05-21T08:12:16.294Z,994.63
2023-05-21T08:13:16.306Z,994.63
2023-05-21T08:14:16.253Z,994.67
2023-05-21T08:15:16.258Z,994.67
2023-05-21T08:16:16.249Z,994.66
2023-05-21T08:17:16.217Z,994.62
2023-05-21T08:18:16.201Z,994.65
2023-05-21T08:19:16.248Z,994.59
2023-05-21T08:20:16.183Z,994.63
2023-05-21T08:21:16.176Z,994.60
2023-05-21T08:22:16.163Z,994.58
2023-05-21T08:23:16.156Z,994.63
2023-05-21T08:24:16.144Z,994.62
2023-05-21T08:25:16.137Z,994.59
2023-05-21T08:26:16.117Z,994.57
2023-05-21T08:27:16.188Z,994.58
2023-05-21T08:28:16.102Z,994.60
2023-05-21T08:29:16.099Z,994.63
2023-05-21T08:30:16.070Z,994.65
2023-05-21T08:31:16.102Z,994.63
2023-05-21T08:32:16.298Z,994.61
2023-05-21T08:33:16.053Z,994.56
2023-05-21T08:34:16.027Z,994.65
2023-05-21T08:35:16.046Z,994.56
2023-05-21T08:36:16.009Z,994.58
2023-05-21T08:37:16.004Z,994.55
2023-05-21T08:38:15.992Z,994.52
2023-05-21T08:39:15.983Z,994.52
2023-05-21T08:40:15.969Z,994.52
2023-05-21T08:41:15.968Z,994.55
2023-05-21T08:42:22.634Z,994.54
2023-05-21T08:43:17.001Z,994.58
2023-05-21T08:44:15.922Z,994.57
2023-05-21T08:45:15.920Z,994.58
2023-05-21T08:46:15.938Z,994.62
2023-05-21T08:47:15.900Z,994.56
2023-05-21T08:48:15.882Z,994.54
2023-05-21T08:49:15.874Z,994.53
2023-05-21T08:50:15.854Z,994.52
2023-05-21T08:51:15.859Z,994.51
2023-05-21T08:52:15.837Z,994.52
2023-05-21T08:53:27.368Z,994.49
2023-05-21T08:54:16.873Z,994.51
2023-05-21T08:55:15.814Z,994.50
2023-05-21T08:56:15.795Z,994.48
2023-05-21T08:57:15.791Z,994.54
2023-05-21T08:58:15.775Z,994.50
2023-05-21T08:59:15.793Z,994.51
2023-05-21T09:00:15.750Z,994.52
2023-05-21T09:01:15.812Z,994.49
2023-05-21T09:02:15.744Z,994.49
2023-05-21T09:03:15.870Z,994.52
2023-05-21T09:04:20.702Z,994.51
2023-05-21T09:05:15.707Z,994.52
2023-05-21T09:06:15.684Z,994.48
2023-05-21T09:07:15.688Z,994.48
2023-05-21T09:08:15.670Z,994.51
2023-05-21T09:09:15.662Z,994.53
2023-05-21T09:10:15.656Z,994.53
2023-05-21T09:11:15.640Z,994.55
2023-05-21T09:12:15.634Z,994.50
2023-05-21T09:13:15.617Z,994.52
2023-05-21T09:14:15.591Z,994.50
2023-05-21T09:15:15.622Z,994.41
2023-05-21T09:16:15.584Z,994.46
2023-05-21T09:17:15.576Z,994.48
2023-05-21T09:18:15.591Z,994.48
2023-05-21T09:19:15.601Z,994.48
2023-05-21T09:20:15.532Z,994.47
2023-05-21T09:21:15.532Z,994.38
2023-05-21T09:22:15.511Z,994.41
2023-05-21T09:23:15.511Z,994.40
2023-05-21T09:24:15.510Z,994.43
2023-05-21T09:25:15.513Z,994.45
2023-05-21T09:26:15.479Z,994.47
2023-05-21T09:27:15.468Z,994.46
2023-05-21T09:28:15.477Z,994.43
2023-05-21T09:29:15.453Z,994.40
2023-05-21T09:30:15.457Z,994.41
2023-05-21T09:31:15.500Z,994.31
2023-05-21T09:32:15.412Z,994.43
2023-05-21T09:33:15.418Z,994.40
2023-05-21T09:34:15.393Z,994.37
2023-05-21T09:35:15.399Z,994.36
2023-05-21T09:36:15.384Z,994.33
2023-05-21T09:37:26.471Z,994.31
2023-05-21T09:38:16.401Z,994.32
2023-05-21T09:39:15.342Z,994.30
2023-05-21T09:40:15.328Z,994.29
2023-05-21T09:41:17.875Z,994.24
2023-05-21T09:42:15.303Z,994.26
2023-05-21T09:43:15.311Z,994.27
2023-05-21T09:44:15.298Z,994.24
2023-05-21T09:45:15.286Z,994.24
2023-05-21T09:46:15.295Z,994.22
2023-05-21T09:47:15.288Z,994.25
2023-05-21T09:48:15.255Z,994.25
2023-05-21T09:49:15.240Z,994.24
2023-05-21T09:50:15.222Z,994.22
2023-05-21T09:51:15.244Z,994.25
2023-05-21T09:52:15.209Z,994.20
2023-05-21T09:53:15.200Z,994.26
2023-05-21T09:54:15.179Z,994.21
2023-05-21T09:55:15.179Z,994.19
2023-05-21T09:56:15.165Z,994.21
2023-05-21T09:57:15.159Z,994.21
2023-05-21T09:58:15.139Z,994.18
2023-05-21T09:59:15.141Z,994.17
2023-05-21T10:00:15.128Z,994.18
2023-05-21T10:01:15.151Z,994.16
2023-05-21T10:02:15.194Z,994.16
2023-05-21T10:03:15.210Z,994.18
2023-05-21T10:04:15.112Z,994.19
2023-05-21T10:05:15.077Z,994.16
2023-05-21T10:06:15.053Z,994.17
2023-05-21T10:07:15.055Z,994.10
2023-05-21T10:08:15.032Z,994.12
2023-05-21T10:09:15.040Z,994.16
2023-05-21T10:10:15.020Z,994.15
2023-05-21T10:11:15.017Z,994.15
2023-05-21T10:12:14.999Z,994.14
2023-05-21T10:13:14.998Z,994.11
2023-05-21T10:14:14.973Z,994.06
2023-05-21T10:15:14.992Z,994.08
2023-05-21T10:16:15.007Z,994.06
2023-05-21T10:17:14.952Z,994.05
2023-05-21T10:18:14.941Z,994.06
2023-05-21T10:19:14.990Z,994.05
2023-05-21T10:20:14.910Z,994.07
2023-05-21T10:21:14.919Z,994.05
2023-05-21T10:22:14.886Z,994.02
2023-05-21T10:23:14.886Z,994.06
2023-05-21T10:24:14.876Z,994.06
2023-05-21T10:25:14.872Z,994.04
2023-05-21T10:26:14.845Z,994.05
2023-05-21T10:27:14.849Z,993.99
2023-05-21T10:28:14.836Z,994.00
2023-05-21T10:29:16.276Z,993.99
2023-05-21T10:30:14.820Z,994.00
2023-05-21T10:31:14.806Z,993.94
2023-05-21T10:32:14.872Z,993.95
2023-05-21T10:33:14.932Z,993.97
2023-05-21T10:34:14.771Z,993.92
2023-05-21T10:35:14.794Z,993.93
2023-05-21T10:36:14.748Z,993.93
2023-05-21T10:37:14.749Z,993.94
2023-05-21T10:38:14.730Z,993.89
2023-05-21T10:39:14.724Z,993.86
2023-05-21T10:40:14.709Z,993.81
2023-05-21T10:41:14.711Z,993.90
2023-05-21T10:42:14.684Z,993.90
2023-05-21T10:43:14.685Z,993.90
2023-05-21T10:44:14.661Z,993.86
2023-05-21T10:45:14.658Z,993.83
2023-05-21T10:46:14.726Z,993.84
2023-05-21T10:47:14.639Z,993.83
2023-05-21T10:48:14.683Z,993.78
2023-05-21T10:49:14.631Z,993.82
2023-05-21T10:50:14.611Z,993.75
2023-05-21T10:51:14.638Z,993.72
2023-05-21T10:52:14.583Z,993.73
2023-05-21T10:53:14.589Z,993.81
2023-05-21T10:54:14.566Z,993.76
2023-05-21T10:55:14.569Z,993.74
2023-05-21T10:56:14.544Z,993.71
2023-05-21T10:57:14.544Z,993.76
2023-05-21T10:58:14.526Z,993.69
2023-05-21T10:59:14.514Z,993.67
2023-05-21T11:00:14.541Z,993.68
2023-05-21T11:01:14.532Z,993.64
2023-05-21T11:02:14.512Z,993.72
2023-05-21T11:03:14.618Z,993.70
2023-05-21T11:04:14.462Z,993.67
2023-05-21T11:05:14.459Z,993.69
2023-05-21T11:06:14.439Z,993.67
2023-05-21T11:07:14.469Z,993.64
2023-05-21T11:08:14.433Z,993.64
2023-05-21T11:09:14.420Z,993.58
2023-05-21T11:10:14.425Z,993.63
2023-05-21T11:11:14.393Z,993.63
2023-05-21T11:12:14.397Z,993.64
2023-05-21T11:13:14.390Z,993.58
2023-05-21T11:14:14.371Z,993.58
2023-05-21T11:15:14.354Z,993.59
2023-05-21T11:16:14.329Z,993.60
2023-05-21T11:17:14.521Z,993.58
2023-05-21T11:18:14.322Z,993.64
2023-05-21T11:19:14.355Z,993.56
2023-05-21T11:20:14.389Z,993.46
2023-05-21T11:21:14.298Z,993.53
2023-05-21T11:22:14.279Z,993.55
2023-05-21T11:23:14.300Z,993.53
2023-05-21T11:24:14.257Z,993.54
2023-05-21T11:25:14.250Z,993.55
2023-05-21T11:26:14.234Z,993.56
2023-05-21T11:27:14.236Z,993.56
2023-05-21T11:28:14.212Z,993.55
2023-05-21T11:29:14.219Z,993.57
2023-05-21T11:30:14.211Z,993.52
2023-05-21T11:31:14.221Z,993.52
2023-05-21T11:32:14.185Z,993.55
2023-05-21T11:33:14.416Z,993.56
2023-05-21T11:34:14.166Z,993.55
2023-05-21T11:35:14.155Z,993.49
2023-05-21T11:36:14.140Z,993.55
2023-05-21T11:37:14.141Z,993.53
2023-05-21T11:38:14.136Z,993.51
2023-05-21T11:39:14.130Z,993.52
2023-05-21T11:40:14.122Z,993.47
2023-05-21T11:41:14.098Z,993.51
2023-05-21T11:42:14.085Z,993.48
2023-05-21T11:43:14.076Z,993.47
2023-05-21T11:44:14.074Z,993.46
2023-05-21T11:45:14.047Z,993.44
2023-05-21T11:46:14.101Z,993.55
2023-05-21T11:47:14.028Z,993.53
2023-05-21T11:48:14.032Z,993.49
2023-05-21T11:49:14.011Z,993.42
2023-05-21T11:50:14.021Z,993.44
2023-05-21T11:51:13.981Z,993.42
2023-05-21T11:52:13.998Z,993.49
2023-05-21T11:53:13.965Z,993.50
2023-05-21T11:54:13.965Z,993.54
2023-05-21T11:55:13.971Z,993.47
2023-05-21T11:56:13.940Z,993.50
2023-05-21T11:57:13.930Z,993.41
2023-05-21T11:58:13.923Z,993.43
2023-05-21T11:59:14.261Z,993.44
2023-05-21T12:00:13.931Z,993.41
2023-05-21T12:01:13.889Z,993.41
2023-05-21T12:02:13.896Z,993.40
2023-05-21T12:03:13.944Z,993.41
2023-05-21T12:04:13.877Z,993.48
2023-05-21T12:05:13.874Z,993.53
2023-05-21T12:06:13.903Z,993.41
2023-05-21T12:07:13.837Z,993.39
2023-05-21T12:08:13.826Z,993.40
2023-05-21T12:09:13.815Z,993.49
2023-05-21T12:10:13.814Z,993.38
2023-05-21T12:11:13.825Z,993.40
2023-05-21T12:12:13.804Z,993.42
2023-05-21T12:13:13.790Z,993.42
2023-05-21T12:14:13.820Z,993.47
2023-05-21T12:15:13.797Z,993.44
2023-05-21T12:16:13.800Z,993.45
2023-05-21T12:17:13.744Z,993.43
2023-05-21T12:18:13.790Z,993.46
2023-05-21T12:19:13.785Z,993.51
2023-05-21T12:20:13.729Z,993.45
2023-05-21T12:21:13.710Z,993.46
2023-05-21T12:22:13.706Z,993.43
2023-05-21T12:23:13.679Z,993.42
2023-05-21T12:24:13.676Z,993.39
2023-05-21T12:25:13.675Z,993.35
2023-05-21T12:26:13.668Z,993.37
2023-05-21T12:27:13.784Z,993.33
2023-05-21T12:28:13.643Z,993.33
2023-05-21T12:29:13.621Z,993.34